x

Dunkirk, Ny (dbln6) Weather Station

11:00pm - Sat 20th Dec 2014 All times are CST. -6 hours from GMT.

  • Wind
    5mph, 7mph gusts
  • Air Temp 30°f
  • Sea Pressure 1025.9mb
  • Dunkirk, Ny
  • Dunkirk, Ny

More Historic Weather Station data

Upgrade to MSW Pro to gain access to the past 30 days of data for over 8000 Wavebouys and Weather Stations around the globe.

Join Pro

Comparision Forecast

View Surf forecast
   
Sat 12/20 11:00pm 5 7 mph 1025.9mb 30f
10:00pm 5 7 mph 1025.9mb 30f
9:00pm 5 8 mph 1026.1mb 31f
8:00pm 5 7 mph 1025.9mb 31f
7:00pm 6 9 mph 1026mb 31f
6:00pm 3 5 mph 1025.7mb 31f
5:00pm 3 5 mph 1025.9mb 31f
4:00pm 8 9 mph 1025.4mb 31f
3:00pm 11 13 mph 1025.2mb 31f
2:00pm 9 10 mph 1025mb 31f
1:00pm 6 8 mph 1025.2mb 30f
12:00pm 6
mph
1025.5mb 30f
11:00am 7 9 mph 1025.8mb 30f
10:00am 8 9 mph 1026.2mb 30f
9:00am 9 11 mph 1026.5mb 30f
8:00am 11 14 mph 1026.6mb 31f
7:00am 8 13 mph 1026.3mb 31f
6:00am 9 10 mph 1026.3mb 31f
5:00am 10 13 mph 1026.1mb 30f
4:00am 9 10 mph 1025.7mb 30f
3:00am 7 8 mph 1025.4mb 29f
2:00am 5 6 mph 1025mb 29f
1:00am 7 8 mph 1024.2mb 29f
12:00am 7 9 mph 1024.8mb 29f
Fri 12/19 11:00pm 8 9 mph 1025.5mb 30f
10:00pm 15 16 mph 1025.7mb 30f
9:00pm 18 21 mph 1025.4mb 31f
8:00pm 7 8 mph 1026mb 29f
7:00pm 6 8 mph 1025.5mb 29f
6:00pm 11 15 mph 1025.3mb 29f
5:00pm 13 15 mph 1025.1mb 29f
4:00pm 13 15 mph 1024.3mb 29f
3:00pm 11 14 mph 1023.9mb 29f
2:00pm 10 13 mph 1023.4mb 28f
1:00pm 13 16 mph 1023.2mb 28f
12:00pm 11 15 mph 1023mb 27f
11:00am 8 10 mph 1023.2mb 27f
10:00am 9 14 mph 1023.7mb 27f
9:00am 8 10 mph 1023.7mb 27f
8:00am 9 11 mph 1023.3mb 28f
7:00am 11 13 mph 1022.5mb 27f
6:00am 10 13 mph 1021.9mb 27f
5:00am 18 21 mph 1020.6mb 28f
4:00am 16 18 mph 1020.4mb 28f
3:00am 17 20 mph 1020.4mb 29f
2:00am 15 17 mph 1020.2mb 30f
1:00am 16 18 mph 1019.7mb 29f
12:00am 18 21 mph 1019.5mb 30f
Thu 12/18 11:00pm 21 23 mph 1019.1mb 31f
10:00pm 23 25 mph 1018.9mb 31f
9:00pm 17 20 mph 1019.1mb 32f
8:00pm 16 22 mph 1019.3mb 32f
7:00pm 17 20 mph 1019.8mb 33f
6:00pm 24 25 mph 1019.3mb 33f
5:00pm 23 24 mph 1019.3mb 33f
4:00pm 25 28 mph 1018.9mb 33f
3:00pm 23 25 mph 1018.8mb 33f
2:00pm 24 29 mph 1018.3mb 33f
1:00pm 28 29 mph 1018.2mb 33f
12:00pm 26 31 mph 1018.6mb 32f
11:00am 22 23 mph 1019.5mb 32f
10:00am 17 20 mph 1019.9mb 33f
9:00am 20 22 mph 1020.4mb 33f
8:00am 21 22 mph 1020mb 33f
7:00am 23 25 mph 1019.8mb 33f
6:00am 25 29 mph 1019.6mb 32f
5:00am 31 34 mph 1018.4mb 33f
4:00am 25 30 mph 1018.6mb 33f
3:00am 29 32 mph 1018.4mb 32f
2:00am 29 33 mph 1018.3mb 32f
1:00am 31 36 mph 1017.2mb 32f
12:00am 31 33 mph 1016.4mb 33f
Wed 12/17 11:00pm 31 33 mph 1016.3mb 32f
10:00pm 31 33 mph 1016.1mb 33f
9:00pm 33 37 mph 1015.8mb 32f
8:00pm 32 36 mph 1015.6mb 33f
7:00pm 33 37 mph 1015.4mb 34f
6:00pm 32 37 mph 1015.2mb 34f
5:00pm 33 37 mph 1014.3mb 34f
4:00pm 34 38 mph 1013.9mb 35f
3:00pm 36 40 mph 1013.5mb 33f
2:00pm 39 41 mph 1012.8mb 34f
1:00pm 39 45 mph 1012.2mb 35f
12:00pm 36 44 mph 1012.5mb 35f
11:00am 38 41 mph 1012.4mb 36f
10:00am 39 43 mph 1012.2mb 36f
9:00am 38 41 mph 1012.1mb 36f
8:00am 37 41 mph 1011.9mb 36f
7:00am 37 41 mph 1011mb 37f